Decoded Metar for KSGJ (ST AUGUSTINE in FL, USA) (IATA:SGJ) | Meteo·Mobile Aviation Weather
aviador You're here:

KSGJ Decoded Metar

ST AUGUSTINE in FL, USA
Report Time2018-08-16 17:56:00
UTC Time2018-08-16 18:17:01
Flight Rules vfr VFR
Wind110° at 13 kt
W.Decomp.*RWY 13: 12.5 kt HW 3.6 kt LCW
RWY 06: 7.6 kt HW 10.5 kt RCW
RWY 20: 0.9 kt HW 13 kt LCW
W.Rank110° ranks 19
Current wind is above 110° avg. (8.7)
Visibility9999 m
Phenomena:N/A
Clouds:Broken 030 Hf
Expected CloudBase > 2,400 ft AGL from Temp-Dew spread
Ceiling3,000 ft
Temp30°C (ISA +15)
Dew Point24°C (70% RH)
Heat Index35.0°C
QNH1022 hPa
Density Alt1,821 ft
Elevation10 ft
Report Wrong Elevation
Raw Report
METAR KSGJ 161756Z 11013KT 10SM BKN030 30/24 A3018 RMK AO2 SLP218 T03000244
10311 20244 58007=

Extra information for KSGJ:More info

Metar Taf Metar & Taf Last 4 Metars F.Rules Stats Wind Profile Meteogram Temp Stats Airport Information Weather charts Add Link Nearby VenuesMetar ALERT Operation Metar Decoded Social comments

AIRNAV info for KSGJ